sensor_id;sensor_type;location;lat;lon;timestamp;P1;durP1;ratioP1;P2;durP2;ratioP2
3757;SDS011;1894;51.038;13.692;2023-04-01T00:01:09;0.90;;;0.57;;
3757;SDS011;1894;51.038;13.692;2023-04-01T00:03:40;2.13;;;0.63;;
3757;SDS011;1894;51.038;13.692;2023-04-01T00:06:09;2.50;;;0.70;;
3757;SDS011;1894;51.038;13.692;2023-04-01T00:08:39;1.57;;;0.60;;
3757;SDS011;1894;51.038;13.692;2023-04-01T00:11:07;1.47;;;0.60;;
3757;SDS011;1894;51.038;13.692;2023-04-01T00:13:34;1.73;;;0.70;;
3757;SDS011;1894;51.038;13.692;2023-04-01T00:16:02;2.90;;;1.10;;
3757;SDS011;1894;51.038;13.692;2023-04-01T00:18:46;2.70;;;0.80;;
3757;SDS011;1894;51.038;13.692;2023-04-01T00:21:14;3.30;;;0.70;;
3757;SDS011;1894;51.038;13.692;2023-04-01T00:23:42;3.53;;;1.13;;
3757;SDS011;1894;51.038;13.692;2023-04-01T00:26:10;3.10;;;0.80;;
3757;SDS011;1894;51.038;13.692;2023-04-01T00:28:39;2.40;;;0.63;;
3757;SDS011;1894;51.038;13.692;2023-04-01T00:31:07;5.03;;;0.73;;
3757;SDS011;1894;51.038;13.692;2023-04-01T00:33:37;1.90;;;0.80;;
3757;SDS011;1894;51.038;13.692;2023-04-01T00:38:39;4.43;;;1.00;;
3757;SDS011;1894;51.038;13.692;2023-04-01T00:41:08;3.83;;;0.60;;
3757;SDS011;1894;51.038;13.692;2023-04-01T00:43:42;2.73;;;0.80;;
3757;SDS011;1894;51.038;13.692;2023-04-01T00:46:13;3.13;;;1.30;;
3757;SDS011;1894;51.038;13.692;2023-04-01T00:48:53;2.30;;;0.60;;
3757;SDS011;1894;51.038;13.692;2023-04-01T00:51:22;3.10;;;0.70;;
3757;SDS011;1894;51.038;13.692;2023-04-01T00:53:54;1.80;;;0.70;;
3757;SDS011;1894;51.038;13.692;2023-04-01T00:56:25;0.73;;;0.67;;
3757;SDS011;1894;51.038;13.692;2023-04-01T00:59:00;2.63;;;0.90;;
3757;SDS011;1894;51.038;13.692;2023-04-01T01:01:34;2.13;;;0.70;;
3757;SDS011;1894;51.038;13.692;2023-04-01T01:04:02;4.53;;;0.90;;
3757;SDS011;1894;51.038;13.692;2023-04-01T01:09:38;1.60;;;0.73;;
3757;SDS011;1894;51.038;13.692;2023-04-01T01:22:00;4.40;;;1.07;;
3757;SDS011;1894;51.038;13.692;2023-04-01T01:27:44;4.03;;;0.80;;
3757;SDS011;1894;51.038;13.692;2023-04-01T01:30:30;3.07;;;0.90;;
3757;SDS011;1894;51.038;13.692;2023-04-01T01:33:13;3.40;;;1.23;;
3757;SDS011;1894;51.038;13.692;2023-04-01T01:35:58;5.60;;;1.17;;
3757;SDS011;1894;51.038;13.692;2023-04-01T01:38:29;4.87;;;1.33;;
3757;SDS011;1894;51.038;13.692;2023-04-01T01:41:03;3.23;;;0.87;;
3757;SDS011;1894;51.038;13.692;2023-04-01T01:43:35;1.57;;;0.60;;
3757;SDS011;1894;51.038;13.692;2023-04-01T01:46:09;4.97;;;0.80;;
3757;SDS011;1894;51.038;13.692;2023-04-01T01:48:41;5.03;;;0.90;;
3757;SDS011;1894;51.038;13.692;2023-04-01T01:51:10;1.43;;;0.63;;
3757;SDS011;1894;51.038;13.692;2023-04-01T01:53:37;3.07;;;0.77;;
3757;SDS011;1894;51.038;13.692;2023-04-01T01:56:05;2.00;;;0.70;;
3757;SDS011;1894;51.038;13.692;2023-04-01T01:58:39;3.60;;;0.70;;
3757;SDS011;1894;51.038;13.692;2023-04-01T02:01:14;0.70;;;0.60;;
3757;SDS011;1894;51.038;13.692;2023-04-01T02:04:04;2.73;;;1.50;;
3757;SDS011;1894;51.038;13.692;2023-04-01T02:06:32;3.17;;;1.00;;
3757;SDS011;1894;51.038;13.692;2023-04-01T02:09:04;3.97;;;0.70;;
3757;SDS011;1894;51.038;13.692;2023-04-01T02:11:36;2.40;;;0.70;;
3757;SDS011;1894;51.038;13.692;2023-04-01T02:14:11;2.60;;;0.70;;
3757;SDS011;1894;51.038;13.692;2023-04-01T02:20:00;2.73;;;1.00;;
3757;SDS011;1894;51.038;13.692;2023-04-01T02:22:37;2.30;;;0.70;;
3757;SDS011;1894;51.038;13.692;2023-04-01T02:25:14;3.87;;;0.70;;
3757;SDS011;1894;51.038;13.692;2023-04-01T02:27:50;1.33;;;0.60;;
3757;SDS011;1894;51.038;13.692;2023-04-01T02:30:19;6.43;;;1.90;;
3757;SDS011;1894;51.038;13.692;2023-04-01T02:32:46;0.70;;;0.50;;
3757;SDS011;1894;51.038;13.692;2023-04-01T02:35:16;1.30;;;0.70;;
3757;SDS011;1894;51.038;13.692;2023-04-01T02:37:44;8.13;;;1.00;;
3757;SDS011;1894;51.038;13.692;2023-04-01T02:40:15;4.13;;;1.17;;
3757;SDS011;1894;51.038;13.692;2023-04-01T02:42:43;4.57;;;0.90;;
3757;SDS011;1894;51.038;13.692;2023-04-01T02:45:11;2.27;;;0.80;;
3757;SDS011;1894;51.038;13.692;2023-04-01T02:47:40;4.87;;;0.90;;
3757;SDS011;1894;51.038;13.692;2023-04-01T02:50:08;2.50;;;0.83;;
3757;SDS011;1894;51.038;13.692;2023-04-01T02:52:36;6.00;;;0.90;;
3757;SDS011;1894;51.038;13.692;2023-04-01T02:55:03;5.00;;;1.03;;
3757;SDS011;1894;51.038;13.692;2023-04-01T02:57:33;4.27;;;0.80;;
3757;SDS011;1894;51.038;13.692;2023-04-01T03:00:00;5.20;;;1.17;;
3757;SDS011;1894;51.038;13.692;2023-04-01T03:02:28;4.40;;;1.40;;
3757;SDS011;1894;51.038;13.692;2023-04-01T03:04:55;2.13;;;0.80;;
3757;SDS011;1894;51.038;13.692;2023-04-01T03:07:22;7.90;;;1.30;;
3757;SDS011;1894;51.038;13.692;2023-04-01T03:09:50;2.20;;;0.70;;
3757;SDS011;1894;51.038;13.692;2023-04-01T03:12:17;3.47;;;0.60;;
3757;SDS011;1894;51.038;13.692;2023-04-01T03:14:49;2.87;;;0.80;;
3757;SDS011;1894;51.038;13.692;2023-04-01T03:17:16;8.57;;;0.70;;
3757;SDS011;1894;51.038;13.692;2023-04-01T03:19:43;2.70;;;0.80;;
3757;SDS011;1894;51.038;13.692;2023-04-01T03:22:11;5.23;;;0.80;;
3757;SDS011;1894;51.038;13.692;2023-04-01T03:24:38;1.90;;;0.67;;
3757;SDS011;1894;51.038;13.692;2023-04-01T03:27:05;4.90;;;0.80;;
3757;SDS011;1894;51.038;13.692;2023-04-01T03:29:32;8.23;;;1.33;;
3757;SDS011;1894;51.038;13.692;2023-04-01T03:32:00;3.00;;;1.70;;
3757;SDS011;1894;51.038;13.692;2023-04-01T03:34:27;4.50;;;0.80;;
3757;SDS011;1894;51.038;13.692;2023-04-01T03:36:54;2.53;;;0.90;;
3757;SDS011;1894;51.038;13.692;2023-04-01T03:39:22;4.60;;;0.70;;
3757;SDS011;1894;51.038;13.692;2023-04-01T03:41:49;7.70;;;1.47;;
3757;SDS011;1894;51.038;13.692;2023-04-01T03:44:17;6.20;;;0.80;;
3757;SDS011;1894;51.038;13.692;2023-04-01T03:46:47;4.17;;;0.70;;
3757;SDS011;1894;51.038;13.692;2023-04-01T03:49:16;4.17;;;0.90;;
3757;SDS011;1894;51.038;13.692;2023-04-01T03:51:44;1.73;;;0.70;;
3757;SDS011;1894;51.038;13.692;2023-04-01T03:54:12;2.20;;;1.00;;
3757;SDS011;1894;51.038;13.692;2023-04-01T03:56:39;2.43;;;0.93;;
3757;SDS011;1894;51.038;13.692;2023-04-01T03:59:06;2.10;;;0.80;;
3757;SDS011;1894;51.038;13.692;2023-04-01T04:01:34;4.70;;;1.20;;
3757;SDS011;1894;51.038;13.692;2023-04-01T04:04:02;3.40;;;0.70;;
3757;SDS011;1894;51.038;13.692;2023-04-01T04:06:29;4.93;;;0.90;;
3757;SDS011;1894;51.038;13.692;2023-04-01T04:08:56;2.30;;;0.70;;
3757;SDS011;1894;51.038;13.692;2023-04-01T04:11:25;4.93;;;0.80;;
3757;SDS011;1894;51.038;13.692;2023-04-01T04:13:52;3.10;;;0.70;;
3757;SDS011;1894;51.038;13.692;2023-04-01T04:16:22;2.03;;;0.70;;
3757;SDS011;1894;51.038;13.692;2023-04-01T04:18:55;3.23;;;0.97;;
3757;SDS011;1894;51.038;13.692;2023-04-01T04:21:23;1.73;;;0.70;;
3757;SDS011;1894;51.038;13.692;2023-04-01T04:23:50;4.70;;;0.80;;
3757;SDS011;1894;51.038;13.692;2023-04-01T04:26:19;2.53;;;0.90;;
3757;SDS011;1894;51.038;13.692;2023-04-01T04:28:55;2.93;;;0.90;;
3757;SDS011;1894;51.038;13.692;2023-04-01T04:31:23;4.33;;;1.23;;
3757;SDS011;1894;51.038;13.692;2023-04-01T04:33:53;2.37;;;0.70;;
3757;SDS011;1894;51.038;13.692;2023-04-01T04:36:21;2.20;;;0.70;;
3757;SDS011;1894;51.038;13.692;2023-04-01T04:38:51;6.70;;;1.10;;
3757;SDS011;1894;51.038;13.692;2023-04-01T04:41:19;3.27;;;0.70;;
3757;SDS011;1894;51.038;13.692;2023-04-01T04:43:51;3.97;;;0.80;;
3757;SDS011;1894;51.038;13.692;2023-04-01T04:46:22;3.10;;;0.80;;
3757;SDS011;1894;51.038;13.692;2023-04-01T04:48:55;4.10;;;0.70;;
3757;SDS011;1894;51.038;13.692;2023-04-01T04:51:23;4.90;;;0.70;;
3757;SDS011;1894;51.038;13.692;2023-04-01T04:53:50;3.63;;;0.80;;
3757;SDS011;1894;51.038;13.692;2023-04-01T04:56:25;3.43;;;1.07;;
3757;SDS011;1894;51.038;13.692;2023-04-01T04:59:03;2.10;;;0.80;;
3757;SDS011;1894;51.038;13.692;2023-04-01T05:01:40;2.53;;;0.70;;
3757;SDS011;1894;51.038;13.692;2023-04-01T05:04:07;2.23;;;0.97;;
3757;SDS011;1894;51.038;13.692;2023-04-01T05:06:35;3.70;;;0.60;;
3757;SDS011;1894;51.038;13.692;2023-04-01T05:09:02;2.27;;;0.60;;
3757;SDS011;1894;51.038;13.692;2023-04-01T05:11:30;6.30;;;0.80;;
3757;SDS011;1894;51.038;13.692;2023-04-01T05:13:57;4.20;;;0.80;;
3757;SDS011;1894;51.038;13.692;2023-04-01T05:16:25;1.60;;;0.73;;
3757;SDS011;1894;51.038;13.692;2023-04-01T05:18:52;2.67;;;0.80;;
3757;SDS011;1894;51.038;13.692;2023-04-01T05:21:19;2.20;;;0.83;;
3757;SDS011;1894;51.038;13.692;2023-04-01T05:23:47;3.80;;;0.70;;
3757;SDS011;1894;51.038;13.692;2023-04-01T05:26:14;1.10;;;0.60;;
3757;SDS011;1894;51.038;13.692;2023-04-01T05:28:41;2.10;;;0.70;;
3757;SDS011;1894;51.038;13.692;2023-04-01T05:31:09;2.60;;;0.70;;
3757;SDS011;1894;51.038;13.692;2023-04-01T05:33:38;1.77;;;0.73;;
3757;SDS011;1894;51.038;13.692;2023-04-01T05:36:13;1.73;;;0.80;;
3757;SDS011;1894;51.038;13.692;2023-04-01T05:38:42;2.97;;;0.90;;
3757;SDS011;1894;51.038;13.692;2023-04-01T05:41:13;1.33;;;0.73;;
3757;SDS011;1894;51.038;13.692;2023-04-01T05:43:44;2.17;;;0.80;;
3757;SDS011;1894;51.038;13.692;2023-04-01T05:46:30;3.77;;;0.80;;
3757;SDS011;1894;51.038;13.692;2023-04-01T05:49:07;1.50;;;0.70;;
3757;SDS011;1894;51.038;13.692;2023-04-01T05:51:35;2.13;;;0.70;;
3757;SDS011;1894;51.038;13.692;2023-04-01T05:54:04;2.20;;;0.87;;
3757;SDS011;1894;51.038;13.692;2023-04-01T05:56:32;2.10;;;0.83;;
3757;SDS011;1894;51.038;13.692;2023-04-01T05:59:00;2.87;;;0.90;;
3757;SDS011;1894;51.038;13.692;2023-04-01T06:01:27;2.70;;;0.70;;
3757;SDS011;1894;51.038;13.692;2023-04-01T06:03:54;1.67;;;1.10;;
3757;SDS011;1894;51.038;13.692;2023-04-01T06:06:25;3.97;;;1.10;;
3757;SDS011;1894;51.038;13.692;2023-04-01T06:09:16;9.07;;;1.30;;
3757;SDS011;1894;51.038;13.692;2023-04-01T06:15:46;3.53;;;1.40;;
3757;SDS011;1894;51.038;13.692;2023-04-01T06:51:54;4.50;;;0.70;;
3757;SDS011;1894;51.038;13.692;2023-04-01T06:55:19;1.30;;;0.57;;
3757;SDS011;1894;51.038;13.692;2023-04-01T06:58:26;2.57;;;0.70;;
3757;SDS011;1894;51.038;13.692;2023-04-01T07:01:26;1.83;;;0.70;;
3757;SDS011;1894;51.038;13.692;2023-04-01T07:04:18;8.30;;;0.70;;
3757;SDS011;1894;51.038;13.692;2023-04-01T07:09:57;2.37;;;0.73;;
3757;SDS011;1894;51.038;13.692;2023-04-01T07:18:05;1.57;;;0.60;;
3757;SDS011;1894;51.038;13.692;2023-04-01T07:20:38;3.23;;;0.90;;
3757;SDS011;1894;51.038;13.692;2023-04-01T07:23:07;1.00;;;0.50;;
3757;SDS011;1894;51.038;13.692;2023-04-01T07:26:04;3.30;;;0.80;;
3757;SDS011;1894;51.038;13.692;2023-04-01T07:29:04;6.20;;;0.80;;
3757;SDS011;1894;51.038;13.692;2023-04-01T07:32:15;0.83;;;0.60;;
3757;SDS011;1894;51.038;13.692;2023-04-01T08:00:51;1.33;;;0.90;;
3757;SDS011;1894;51.038;13.692;2023-04-01T08:09:55;3.47;;;0.80;;
3757;SDS011;1894;51.038;13.692;2023-04-01T08:13:08;1.63;;;1.33;;
3757;SDS011;1894;51.038;13.692;2023-04-01T08:22:21;1.30;;;0.80;;
3757;SDS011;1894;51.038;13.692;2023-04-01T08:24:52;3.87;;;0.80;;
3757;SDS011;1894;51.038;13.692;2023-04-01T08:33:05;1.60;;;0.50;;
3757;SDS011;1894;51.038;13.692;2023-04-01T08:36:12;2.30;;;0.83;;
3757;SDS011;1894;51.038;13.692;2023-04-01T08:38:57;2.73;;;0.80;;
3757;SDS011;1894;51.038;13.692;2023-04-01T08:47:59;1.27;;;0.70;;
3757;SDS011;1894;51.038;13.692;2023-04-01T08:59:16;2.60;;;0.90;;
3757;SDS011;1894;51.038;13.692;2023-04-01T09:21:03;1.30;;;0.90;;
3757;SDS011;1894;51.038;13.692;2023-04-01T09:29:10;2.20;;;1.40;;
3757;SDS011;1894;51.038;13.692;2023-04-01T09:35:59;1.43;;;0.90;;
3757;SDS011;1894;51.038;13.692;2023-04-01T09:38:53;2.40;;;0.70;;
3757;SDS011;1894;51.038;13.692;2023-04-01T09:41:31;2.80;;;0.83;;
3757;SDS011;1894;51.038;13.692;2023-04-01T09:44:21;4.17;;;0.70;;
3757;SDS011;1894;51.038;13.692;2023-04-01T10:12:14;1.70;;;0.50;;
3757;SDS011;1894;51.038;13.692;2023-04-01T10:20:59;13.97;;;0.70;;
3757;SDS011;1894;51.038;13.692;2023-04-01T10:27:10;1.63;;;0.90;;
3757;SDS011;1894;51.038;13.692;2023-04-01T10:42:31;0.90;;;0.60;;
3757;SDS011;1894;51.038;13.692;2023-04-01T10:48:40;1.03;;;0.60;;
3757;SDS011;1894;51.038;13.692;2023-04-01T11:08:02;2.00;;;0.70;;
3757;SDS011;1894;51.038;13.692;2023-04-01T11:29:56;1.40;;;0.57;;
3757;SDS011;1894;51.038;13.692;2023-04-01T11:32:53;0.70;;;0.50;;
3757;SDS011;1894;51.038;13.692;2023-04-01T11:57:31;2.50;;;1.53;;
3757;SDS011;1894;51.038;13.692;2023-04-01T12:18:10;0.90;;;0.63;;
3757;SDS011;1894;51.038;13.692;2023-04-01T12:23:46;2.90;;;0.80;;
3757;SDS011;1894;51.038;13.692;2023-04-01T12:26:35;1.00;;;0.60;;
3757;SDS011;1894;51.038;13.692;2023-04-01T12:32:34;1.00;;;0.70;;
3757;SDS011;1894;51.038;13.692;2023-04-01T12:41:32;2.10;;;0.60;;
3757;SDS011;1894;51.038;13.692;2023-04-01T12:53:49;2.30;;;0.70;;
3757;SDS011;1894;51.038;13.692;2023-04-01T13:05:31;1.27;;;0.70;;
3757;SDS011;1894;51.038;13.692;2023-04-01T13:17:25;1.73;;;0.60;;
3757;SDS011;1894;51.038;13.692;2023-04-01T13:20:06;0.90;;;0.50;;
3757;SDS011;1894;51.038;13.692;2023-04-01T13:34:51;1.27;;;0.60;;
3757;SDS011;1894;51.038;13.692;2023-04-01T13:53:03;0.80;;;0.60;;
3757;SDS011;1894;51.038;13.692;2023-04-01T14:08:33;1.07;;;0.50;;
3757;SDS011;1894;51.038;13.692;2023-04-01T14:11:17;1.43;;;0.50;;
3757;SDS011;1894;51.038;13.692;2023-04-01T14:14:48;1.07;;;0.60;;
3757;SDS011;1894;51.038;13.692;2023-04-01T14:29:15;0.70;;;0.50;;
3757;SDS011;1894;51.038;13.692;2023-04-01T14:40:49;0.93;;;0.70;;
3757;SDS011;1894;51.038;13.692;2023-04-01T14:51:47;0.63;;;0.40;;
3757;SDS011;1894;51.038;13.692;2023-04-01T14:57:09;0.90;;;0.50;;
3757;SDS011;1894;51.038;13.692;2023-04-01T14:59:50;0.60;;;0.50;;
3757;SDS011;1894;51.038;13.692;2023-04-01T15:02:29;0.83;;;0.43;;
3757;SDS011;1894;51.038;13.692;2023-04-01T15:05:31;0.80;;;0.53;;
3757;SDS011;1894;51.038;13.692;2023-04-01T15:08:10;3.13;;;0.50;;
3757;SDS011;1894;51.038;13.692;2023-04-01T15:10:57;0.60;;;0.50;;
3757;SDS011;1894;51.038;13.692;2023-04-01T15:32:17;1.10;;;0.60;;
3757;SDS011;1894;51.038;13.692;2023-04-01T15:37:48;0.80;;;0.67;;
3757;SDS011;1894;51.038;13.692;2023-04-01T15:43:43;0.70;;;0.60;;
3757;SDS011;1894;51.038;13.692;2023-04-01T15:52:06;0.90;;;0.70;;
3757;SDS011;1894;51.038;13.692;2023-04-01T15:55:17;0.97;;;0.73;;
3757;SDS011;1894;51.038;13.692;2023-04-01T16:00:58;0.80;;;0.60;;
3757;SDS011;1894;51.038;13.692;2023-04-01T16:09:55;1.07;;;0.70;;
3757;SDS011;1894;51.038;13.692;2023-04-01T16:16:07;1.13;;;0.70;;
3757;SDS011;1894;51.038;13.692;2023-04-01T16:19:07;1.53;;;1.10;;
3757;SDS011;1894;51.038;13.692;2023-04-01T16:22:32;1.33;;;1.23;;
3757;SDS011;1894;51.038;13.692;2023-04-01T16:25:31;1.93;;;1.57;;
3757;SDS011;1894;51.038;13.692;2023-04-01T16:31:12;0.70;;;0.50;;
3757;SDS011;1894;51.038;13.692;2023-04-01T16:34:24;0.90;;;0.60;;
3757;SDS011;1894;51.038;13.692;2023-04-01T16:37:28;0.90;;;0.70;;
3757;SDS011;1894;51.038;13.692;2023-04-01T16:40:25;0.87;;;0.67;;
3757;SDS011;1894;51.038;13.692;2023-04-01T16:43:28;1.53;;;0.60;;
3757;SDS011;1894;51.038;13.692;2023-04-01T16:57:52;2.60;;;1.10;;
3757;SDS011;1894;51.038;13.692;2023-04-01T17:00:38;1.60;;;0.80;;
3757;SDS011;1894;51.038;13.692;2023-04-01T17:03:29;3.43;;;1.60;;
3757;SDS011;1894;51.038;13.692;2023-04-01T17:06:32;0.80;;;0.67;;
3757;SDS011;1894;51.038;13.692;2023-04-01T17:12:11;1.40;;;1.00;;
3757;SDS011;1894;51.038;13.692;2023-04-01T17:14:54;2.20;;;1.70;;
3757;SDS011;1894;51.038;13.692;2023-04-01T17:21:07;2.30;;;0.80;;
3757;SDS011;1894;51.038;13.692;2023-04-01T17:23:52;2.23;;;1.20;;
3757;SDS011;1894;51.038;13.692;2023-04-01T17:35:32;1.03;;;0.93;;
3757;SDS011;1894;51.038;13.692;2023-04-01T17:43:44;2.13;;;0.90;;
3757;SDS011;1894;51.038;13.692;2023-04-01T17:47:06;1.07;;;0.90;;
3757;SDS011;1894;51.038;13.692;2023-04-01T17:50:36;2.93;;;1.40;;
3757;SDS011;1894;51.038;13.692;2023-04-01T17:59:43;3.30;;;1.20;;
3757;SDS011;1894;51.038;13.692;2023-04-01T18:04:57;1.60;;;1.10;;
3757;SDS011;1894;51.038;13.692;2023-04-01T18:23:24;5.13;;;3.90;;
3757;SDS011;1894;51.038;13.692;2023-04-01T18:26:03;5.03;;;4.53;;
3757;SDS011;1894;51.038;13.692;2023-04-01T18:31:45;6.03;;;5.13;;
3757;SDS011;1894;51.038;13.692;2023-04-01T18:34:20;5.43;;;4.93;;
3757;SDS011;1894;51.038;13.692;2023-04-01T18:37:19;10.70;;;5.10;;
3757;SDS011;1894;51.038;13.692;2023-04-01T18:45:45;6.27;;;4.87;;
3757;SDS011;1894;51.038;13.692;2023-04-01T18:48:51;4.63;;;3.87;;
3757;SDS011;1894;51.038;13.692;2023-04-01T18:51:45;4.30;;;3.37;;
3757;SDS011;1894;51.038;13.692;2023-04-01T18:54:41;6.07;;;4.00;;
3757;SDS011;1894;51.038;13.692;2023-04-01T18:57:23;5.47;;;4.70;;
3757;SDS011;1894;51.038;13.692;2023-04-01T18:59:57;5.47;;;3.77;;
3757;SDS011;1894;51.038;13.692;2023-04-01T19:05:13;5.47;;;4.97;;
3757;SDS011;1894;51.038;13.692;2023-04-01T19:07:47;6.10;;;5.03;;
3757;SDS011;1894;51.038;13.692;2023-04-01T19:16:00;8.47;;;7.50;;
3757;SDS011;1894;51.038;13.692;2023-04-01T19:30:58;7.60;;;6.20;;
3757;SDS011;1894;51.038;13.692;2023-04-01T19:33:48;12.27;;;6.03;;
3757;SDS011;1894;51.038;13.692;2023-04-01T19:36:43;7.80;;;6.40;;
3757;SDS011;1894;51.038;13.692;2023-04-01T19:45:09;5.50;;;4.20;;
3757;SDS011;1894;51.038;13.692;2023-04-01T19:53:21;4.00;;;3.40;;
3757;SDS011;1894;51.038;13.692;2023-04-01T19:56:19;4.07;;;3.63;;
3757;SDS011;1894;51.038;13.692;2023-04-01T19:59:03;6.17;;;3.90;;
3757;SDS011;1894;51.038;13.692;2023-04-01T20:04:51;8.40;;;4.80;;
3757;SDS011;1894;51.038;13.692;2023-04-01T20:07:37;5.00;;;4.30;;
3757;SDS011;1894;51.038;13.692;2023-04-01T20:12:52;8.37;;;6.50;;
3757;SDS011;1894;51.038;13.692;2023-04-01T20:16:00;6.40;;;4.93;;
3757;SDS011;1894;51.038;13.692;2023-04-01T20:18:54;6.43;;;5.83;;
3757;SDS011;1894;51.038;13.692;2023-04-01T20:27:09;5.57;;;4.73;;
3757;SDS011;1894;51.038;13.692;2023-04-01T20:32:40;5.07;;;4.57;;
3757;SDS011;1894;51.038;13.692;2023-04-01T20:35:34;11.57;;;5.20;;
3757;SDS011;1894;51.038;13.692;2023-04-01T20:43:52;3.37;;;2.80;;
3757;SDS011;1894;51.038;13.692;2023-04-01T20:52:38;5.97;;;5.33;;
3757;SDS011;1894;51.038;13.692;2023-04-01T20:58:09;3.80;;;3.50;;
3757;SDS011;1894;51.038;13.692;2023-04-01T21:03:36;5.23;;;3.63;;
3757;SDS011;1894;51.038;13.692;2023-04-01T21:06:20;3.67;;;3.30;;
3757;SDS011;1894;51.038;13.692;2023-04-01T21:11:46;3.10;;;2.80;;
3757;SDS011;1894;51.038;13.692;2023-04-01T21:34:40;4.27;;;3.87;;
3757;SDS011;1894;51.038;13.692;2023-04-01T21:37:44;4.50;;;4.10;;
3757;SDS011;1894;51.038;13.692;2023-04-01T21:43:38;5.17;;;4.70;;
3757;SDS011;1894;51.038;13.692;2023-04-01T21:55:36;2.83;;;2.57;;
3757;SDS011;1894;51.038;13.692;2023-04-01T22:07:23;3.07;;;2.80;;
3757;SDS011;1894;51.038;13.692;2023-04-01T22:13:26;3.83;;;2.47;;
3757;SDS011;1894;51.038;13.692;2023-04-01T22:19:28;3.53;;;1.97;;
3757;SDS011;1894;51.038;13.692;2023-04-01T22:22:49;6.10;;;3.00;;
3757;SDS011;1894;51.038;13.692;2023-04-01T22:26:05;3.33;;;2.30;;
3757;SDS011;1894;51.038;13.692;2023-04-01T22:31:56;2.87;;;2.57;;
3757;SDS011;1894;51.038;13.692;2023-04-01T22:43:11;3.00;;;2.70;;
3757;SDS011;1894;51.038;13.692;2023-04-01T22:48:29;2.63;;;2.43;;
3757;SDS011;1894;51.038;13.692;2023-04-01T22:51:17;3.80;;;2.73;;
3757;SDS011;1894;51.038;13.692;2023-04-01T22:54:12;3.20;;;2.80;;
3757;SDS011;1894;51.038;13.692;2023-04-01T22:56:52;3.33;;;3.03;;
3757;SDS011;1894;51.038;13.692;2023-04-01T22:59:35;4.00;;;3.40;;
3757;SDS011;1894;51.038;13.692;2023-04-01T23:02:06;4.50;;;4.10;;
3757;SDS011;1894;51.038;13.692;2023-04-01T23:04:58;4.33;;;3.30;;
3757;SDS011;1894;51.038;13.692;2023-04-01T23:10:25;5.90;;;5.00;;
3757;SDS011;1894;51.038;13.692;2023-04-01T23:13:11;5.40;;;4.37;;
3757;SDS011;1894;51.038;13.692;2023-04-01T23:15:45;6.17;;;4.70;;
3757;SDS011;1894;51.038;13.692;2023-04-01T23:18:22;6.40;;;4.27;;
3757;SDS011;1894;51.038;13.692;2023-04-01T23:21:11;4.40;;;4.00;;
3757;SDS011;1894;51.038;13.692;2023-04-01T23:24:01;5.20;;;4.40;;
3757;SDS011;1894;51.038;13.692;2023-04-01T23:26:59;4.63;;;4.13;;
3757;SDS011;1894;51.038;13.692;2023-04-01T23:29:47;7.90;;;3.60;;
3757;SDS011;1894;51.038;13.692;2023-04-01T23:32:18;3.97;;;3.57;;
3757;SDS011;1894;51.038;13.692;2023-04-01T23:34:51;5.10;;;4.47;;
3757;SDS011;1894;51.038;13.692;2023-04-01T23:37:26;4.13;;;3.63;;
3757;SDS011;1894;51.038;13.692;2023-04-01T23:39:54;6.40;;;4.53;;
3757;SDS011;1894;51.038;13.692;2023-04-01T23:42:31;5.80;;;4.23;;
3757;SDS011;1894;51.038;13.692;2023-04-01T23:45:11;4.23;;;3.80;;
3757;SDS011;1894;51.038;13.692;2023-04-01T23:47:44;4.77;;;4.30;;
3757;SDS011;1894;51.038;13.692;2023-04-01T23:50:14;4.20;;;3.90;;
3757;SDS011;1894;51.038;13.692;2023-04-01T23:53:08;4.30;;;3.90;;
3757;SDS011;1894;51.038;13.692;2023-04-01T23:56:01;5.03;;;3.20;;
